sensor_id;sensor_type;location;lat;lon;timestamp;temperature;humidity
5134;DHT22;2585;48.696;10.066;2023-01-08T00:02:26;-1.10;94.10
5134;DHT22;2585;48.696;10.066;2023-01-08T00:04:53;-1.10;94.10
5134;DHT22;2585;48.696;10.066;2023-01-08T00:07:19;-1.00;94.20
5134;DHT22;2585;48.696;10.066;2023-01-08T00:09:46;-0.90;94.20
5134;DHT22;2585;48.696;10.066;2023-01-08T00:12:18;-1.00;94.20
5134;DHT22;2585;48.696;10.066;2023-01-08T00:14:45;-1.00;94.20
5134;DHT22;2585;48.696;10.066;2023-01-08T00:17:11;-1.00;94.20
5134;DHT22;2585;48.696;10.066;2023-01-08T00:19:38;-1.00;94.20
5134;DHT22;2585;48.696;10.066;2023-01-08T00:22:08;-1.00;94.20
5134;DHT22;2585;48.696;10.066;2023-01-08T00:24:35;-1.00;94.20
5134;DHT22;2585;48.696;10.066;2023-01-08T00:27:02;-1.00;94.20
5134;DHT22;2585;48.696;10.066;2023-01-08T00:29:29;-0.90;94.20
5134;DHT22;2585;48.696;10.066;2023-01-08T00:31:55;-0.90;94.20
5134;DHT22;2585;48.696;10.066;2023-01-08T00:34:22;-0.90;94.20
5134;DHT22;2585;48.696;10.066;2023-01-08T00:36:49;-0.90;94.20
5134;DHT22;2585;48.696;10.066;2023-01-08T00:39:16;-0.90;94.20
5134;DHT22;2585;48.696;10.066;2023-01-08T00:41:42;-1.00;94.20
5134;DHT22;2585;48.696;10.066;2023-01-08T00:44:11;-1.00;94.20
5134;DHT22;2585;48.696;10.066;2023-01-08T00:46:37;-1.00;94.20
5134;DHT22;2585;48.696;10.066;2023-01-08T00:49:04;-1.00;94.20
5134;DHT22;2585;48.696;10.066;2023-01-08T00:51:31;-1.00;94.20
5134;DHT22;2585;48.696;10.066;2023-01-08T00:53:57;-1.00;94.20
5134;DHT22;2585;48.696;10.066;2023-01-08T00:56:24;-1.00;94.20
5134;DHT22;2585;48.696;10.066;2023-01-08T00:58:51;-0.90;94.20
5134;DHT22;2585;48.696;10.066;2023-01-08T01:01:18;-0.90;94.20
5134;DHT22;2585;48.696;10.066;2023-01-08T01:03:45;-1.00;94.20
5134;DHT22;2585;48.696;10.066;2023-01-08T01:06:13;-1.00;94.20
5134;DHT22;2585;48.696;10.066;2023-01-08T01:08:40;-1.00;94.20
5134;DHT22;2585;48.696;10.066;2023-01-08T01:11:21;-1.10;94.20
5134;DHT22;2585;48.696;10.066;2023-01-08T01:13:48;-1.10;94.20
5134;DHT22;2585;48.696;10.066;2023-01-08T01:16:15;-1.00;94.20
5134;DHT22;2585;48.696;10.066;2023-01-08T01:18:42;-1.00;94.20
5134;DHT22;2585;48.696;10.066;2023-01-08T01:21:21;-1.10;94.20
5134;DHT22;2585;48.696;10.066;2023-01-08T01:23:48;-1.10;94.20
5134;DHT22;2585;48.696;10.066;2023-01-08T01:26:17;-1.10;94.20
5134;DHT22;2585;48.696;10.066;2023-01-08T01:28:48;-1.20;94.20
5134;DHT22;2585;48.696;10.066;2023-01-08T01:31:16;-1.30;94.10
5134;DHT22;2585;48.696;10.066;2023-01-08T01:33:43;-1.20;94.20
5134;DHT22;2585;48.696;10.066;2023-01-08T01:36:11;-1.30;94.10
5134;DHT22;2585;48.696;10.066;2023-01-08T01:38:45;-1.40;94.10
5134;DHT22;2585;48.696;10.066;2023-01-08T01:41:27;-1.40;94.10
5134;DHT22;2585;48.696;10.066;2023-01-08T01:43:57;-1.50;94.10
5134;DHT22;2585;48.696;10.066;2023-01-08T01:46:37;-1.40;94.10
5134;DHT22;2585;48.696;10.066;2023-01-08T01:49:18;-1.50;94.10
5134;DHT22;2585;48.696;10.066;2023-01-08T01:51:49;-1.40;94.10
5134;DHT22;2585;48.696;10.066;2023-01-08T01:54:18;-1.50;94.10
5134;DHT22;2585;48.696;10.066;2023-01-08T01:56:45;-1.60;94.10
5134;DHT22;2585;48.696;10.066;2023-01-08T01:59:13;-1.60;94.10
5134;DHT22;2585;48.696;10.066;2023-01-08T02:01:41;-1.60;94.10
5134;DHT22;2585;48.696;10.066;2023-01-08T02:04:10;-1.50;94.10
5134;DHT22;2585;48.696;10.066;2023-01-08T02:07:12;-1.40;94.10
5134;DHT22;2585;48.696;10.066;2023-01-08T02:09:51;-1.40;94.10
5134;DHT22;2585;48.696;10.066;2023-01-08T02:12:27;-1.40;94.10
5134;DHT22;2585;48.696;10.066;2023-01-08T02:15:16;-1.50;94.10
5134;DHT22;2585;48.696;10.066;2023-01-08T02:18:12;-1.50;94.10
5134;DHT22;2585;48.696;10.066;2023-01-08T02:20:44;-1.70;94.00
5134;DHT22;2585;48.696;10.066;2023-01-08T02:28:31;-1.60;94.10
5134;DHT22;2585;48.696;10.066;2023-01-08T02:30:59;-1.60;94.10
5134;DHT22;2585;48.696;10.066;2023-01-08T02:33:28;-1.60;94.10
5134;DHT22;2585;48.696;10.066;2023-01-08T02:50:13;-1.60;94.10
5134;DHT22;2585;48.696;10.066;2023-01-08T02:52:52;-1.50;94.10
5134;DHT22;2585;48.696;10.066;2023-01-08T02:55:22;-1.50;94.10
5134;DHT22;2585;48.696;10.066;2023-01-08T02:57:52;-1.50;94.10
5134;DHT22;2585;48.696;10.066;2023-01-08T03:00:19;-1.60;94.10
5134;DHT22;2585;48.696;10.066;2023-01-08T03:02:48;-1.60;94.10
5134;DHT22;2585;48.696;10.066;2023-01-08T03:05:24;-1.60;94.10
5134;DHT22;2585;48.696;10.066;2023-01-08T03:07:52;-1.60;94.10
5134;DHT22;2585;48.696;10.066;2023-01-08T03:10:21;-1.60;94.10
5134;DHT22;2585;48.696;10.066;2023-01-08T03:12:58;-1.50;94.10
5134;DHT22;2585;48.696;10.066;2023-01-08T03:15:33;-1.50;94.10
5134;DHT22;2585;48.696;10.066;2023-01-08T03:18:10;-1.50;94.10
5134;DHT22;2585;48.696;10.066;2023-01-08T03:20:38;-1.40;94.10
5134;DHT22;2585;48.696;10.066;2023-01-08T03:23:08;-1.50;94.10
5134;DHT22;2585;48.696;10.066;2023-01-08T03:25:40;-1.50;94.10
5134;DHT22;2585;48.696;10.066;2023-01-08T03:28:15;-1.50;94.10
5134;DHT22;2585;48.696;10.066;2023-01-08T03:30:45;-1.40;94.10
5134;DHT22;2585;48.696;10.066;2023-01-08T03:33:12;-1.40;94.10
5134;DHT22;2585;48.696;10.066;2023-01-08T03:35:42;-1.40;94.10
5134;DHT22;2585;48.696;10.066;2023-01-08T03:38:25;-1.30;94.10
5134;DHT22;2585;48.696;10.066;2023-01-08T03:40:59;-1.40;94.10
5134;DHT22;2585;48.696;10.066;2023-01-08T03:43:27;-1.40;94.10
5134;DHT22;2585;48.696;10.066;2023-01-08T03:45:58;-1.40;94.10
5134;DHT22;2585;48.696;10.066;2023-01-08T03:48:27;-1.50;94.10
5134;DHT22;2585;48.696;10.066;2023-01-08T03:50:55;-1.60;94.00
5134;DHT22;2585;48.696;10.066;2023-01-08T03:53:22;-1.50;94.10
5134;DHT22;2585;48.696;10.066;2023-01-08T03:55:49;-1.50;94.10
5134;DHT22;2585;48.696;10.066;2023-01-08T03:58:16;-1.50;94.10
5134;DHT22;2585;48.696;10.066;2023-01-08T04:00:42;-1.40;94.10
5134;DHT22;2585;48.696;10.066;2023-01-08T04:03:09;-1.40;94.10
5134;DHT22;2585;48.696;10.066;2023-01-08T04:05:36;-1.40;94.10
5134;DHT22;2585;48.696;10.066;2023-01-08T04:08:03;-1.30;94.10
5134;DHT22;2585;48.696;10.066;2023-01-08T04:10:29;-1.30;94.10
5134;DHT22;2585;48.696;10.066;2023-01-08T04:12:56;-1.40;94.10
5134;DHT22;2585;48.696;10.066;2023-01-08T04:15:23;-1.40;94.10
5134;DHT22;2585;48.696;10.066;2023-01-08T04:17:50;-1.40;94.10
5134;DHT22;2585;48.696;10.066;2023-01-08T04:20:16;-1.30;94.10
5134;DHT22;2585;48.696;10.066;2023-01-08T04:22:43;-1.30;94.10
5134;DHT22;2585;48.696;10.066;2023-01-08T04:25:10;-1.30;94.10
5134;DHT22;2585;48.696;10.066;2023-01-08T04:27:37;-1.30;94.10
5134;DHT22;2585;48.696;10.066;2023-01-08T04:30:04;-1.30;94.10
5134;DHT22;2585;48.696;10.066;2023-01-08T04:32:30;-1.20;94.10
5134;DHT22;2585;48.696;10.066;2023-01-08T04:34:57;-1.30;94.10
5134;DHT22;2585;48.696;10.066;2023-01-08T04:37:24;-1.30;94.10
5134;DHT22;2585;48.696;10.066;2023-01-08T04:39:51;-1.30;94.10
5134;DHT22;2585;48.696;10.066;2023-01-08T04:42:17;-1.30;94.10
5134;DHT22;2585;48.696;10.066;2023-01-08T04:44:44;-1.30;94.10
5134;DHT22;2585;48.696;10.066;2023-01-08T04:47:11;-1.30;94.10
5134;DHT22;2585;48.696;10.066;2023-01-08T04:49:38;-1.30;94.10
5134;DHT22;2585;48.696;10.066;2023-01-08T04:52:04;-1.20;94.10
5134;DHT22;2585;48.696;10.066;2023-01-08T04:54:31;-1.30;94.10
5134;DHT22;2585;48.696;10.066;2023-01-08T04:56:58;-1.30;94.10
5134;DHT22;2585;48.696;10.066;2023-01-08T04:59:24;-1.20;94.10
5134;DHT22;2585;48.696;10.066;2023-01-08T05:01:51;-1.20;94.10
5134;DHT22;2585;48.696;10.066;2023-01-08T05:04:18;-1.10;94.20
5134;DHT22;2585;48.696;10.066;2023-01-08T05:06:45;-1.20;94.10
5134;DHT22;2585;48.696;10.066;2023-01-08T05:09:11;-1.20;94.10
5134;DHT22;2585;48.696;10.066;2023-01-08T05:11:38;-1.10;94.20
5134;DHT22;2585;48.696;10.066;2023-01-08T05:14:05;-1.10;94.20
5134;DHT22;2585;48.696;10.066;2023-01-08T05:16:32;-1.10;94.20
5134;DHT22;2585;48.696;10.066;2023-01-08T05:18:59;-1.10;94.20
5134;DHT22;2585;48.696;10.066;2023-01-08T05:21:25;-1.00;94.20
5134;DHT22;2585;48.696;10.066;2023-01-08T05:23:52;-1.00;94.20
5134;DHT22;2585;48.696;10.066;2023-01-08T05:26:19;-0.90;94.20
5134;DHT22;2585;48.696;10.066;2023-01-08T05:28:46;-0.90;94.20
5134;DHT22;2585;48.696;10.066;2023-01-08T05:31:13;-0.90;94.20
5134;DHT22;2585;48.696;10.066;2023-01-08T05:33:40;-0.90;94.20
5134;DHT22;2585;48.696;10.066;2023-01-08T05:36:08;-1.00;94.20
5134;DHT22;2585;48.696;10.066;2023-01-08T05:38:36;-0.90;94.20
5134;DHT22;2585;48.696;10.066;2023-01-08T05:41:03;-0.90;94.20
5134;DHT22;2585;48.696;10.066;2023-01-08T05:43:30;-0.90;94.20
5134;DHT22;2585;48.696;10.066;2023-01-08T05:45:58;-0.90;94.20
5134;DHT22;2585;48.696;10.066;2023-01-08T05:48:26;-0.90;94.20
5134;DHT22;2585;48.696;10.066;2023-01-08T05:50:53;-0.90;94.20
5134;DHT22;2585;48.696;10.066;2023-01-08T05:53:20;-0.80;94.30
5134;DHT22;2585;48.696;10.066;2023-01-08T05:55:47;-0.80;94.30
5134;DHT22;2585;48.696;10.066;2023-01-08T05:58:14;-0.80;94.30
5134;DHT22;2585;48.696;10.066;2023-01-08T06:00:44;-0.80;94.30
5134;DHT22;2585;48.696;10.066;2023-01-08T06:03:11;-0.80;94.30
5134;DHT22;2585;48.696;10.066;2023-01-08T06:05:38;-0.80;94.30
5134;DHT22;2585;48.696;10.066;2023-01-08T06:08:05;-0.80;94.30
5134;DHT22;2585;48.696;10.066;2023-01-08T06:10:36;-0.70;94.30
5134;DHT22;2585;48.696;10.066;2023-01-08T06:13:06;-0.80;94.30
5134;DHT22;2585;48.696;10.066;2023-01-08T06:15:33;-0.80;94.30
5134;DHT22;2585;48.696;10.066;2023-01-08T06:18:03;-0.70;94.30
5134;DHT22;2585;48.696;10.066;2023-01-08T06:20:30;-0.80;94.30
5134;DHT22;2585;48.696;10.066;2023-01-08T06:22:57;-0.80;94.30
5134;DHT22;2585;48.696;10.066;2023-01-08T06:25:23;-0.80;94.30
5134;DHT22;2585;48.696;10.066;2023-01-08T06:27:53;-0.80;94.30
5134;DHT22;2585;48.696;10.066;2023-01-08T06:30:20;-0.70;94.30
5134;DHT22;2585;48.696;10.066;2023-01-08T06:32:47;-0.70;94.30
5134;DHT22;2585;48.696;10.066;2023-01-08T06:35:13;-0.70;94.30
5134;DHT22;2585;48.696;10.066;2023-01-08T06:37:40;-0.70;94.30
5134;DHT22;2585;48.696;10.066;2023-01-08T06:40:07;-0.70;94.30
5134;DHT22;2585;48.696;10.066;2023-01-08T06:42:34;-0.80;94.30
5134;DHT22;2585;48.696;10.066;2023-01-08T06:45:01;-0.80;94.30
5134;DHT22;2585;48.696;10.066;2023-01-08T06:47:27;-0.80;94.30
5134;DHT22;2585;48.696;10.066;2023-01-08T06:49:54;-0.80;94.30
5134;DHT22;2585;48.696;10.066;2023-01-08T06:52:21;-0.70;94.30
5134;DHT22;2585;48.696;10.066;2023-01-08T06:54:48;-0.70;94.30
5134;DHT22;2585;48.696;10.066;2023-01-08T06:57:14;-0.70;94.30
5134;DHT22;2585;48.696;10.066;2023-01-08T06:59:42;-0.70;94.30
5134;DHT22;2585;48.696;10.066;2023-01-08T07:02:16;-0.70;94.30
5134;DHT22;2585;48.696;10.066;2023-01-08T07:04:43;-0.70;94.30
5134;DHT22;2585;48.696;10.066;2023-01-08T07:07:14;-0.70;94.30
5134;DHT22;2585;48.696;10.066;2023-01-08T07:09:41;-0.70;94.30
5134;DHT22;2585;48.696;10.066;2023-01-08T07:12:14;-0.70;94.30
5134;DHT22;2585;48.696;10.066;2023-01-08T07:14:41;-0.70;94.30
5134;DHT22;2585;48.696;10.066;2023-01-08T07:17:07;-0.70;94.30
5134;DHT22;2585;48.696;10.066;2023-01-08T07:19:34;-0.70;94.30
5134;DHT22;2585;48.696;10.066;2023-01-08T07:22:01;-0.60;94.30
5134;DHT22;2585;48.696;10.066;2023-01-08T07:24:28;-0.60;94.30
5134;DHT22;2585;48.696;10.066;2023-01-08T07:26:55;-0.60;94.30
5134;DHT22;2585;48.696;10.066;2023-01-08T07:29:22;-0.60;94.30
5134;DHT22;2585;48.696;10.066;2023-01-08T07:31:49;-0.60;94.30
5134;DHT22;2585;48.696;10.066;2023-01-08T07:34:16;-0.60;94.30
5134;DHT22;2585;48.696;10.066;2023-01-08T07:36:42;-0.50;94.30
5134;DHT22;2585;48.696;10.066;2023-01-08T07:39:09;-0.50;94.30
5134;DHT22;2585;48.696;10.066;2023-01-08T07:41:36;-0.40;94.40
5134;DHT22;2585;48.696;10.066;2023-01-08T07:44:03;-0.40;94.40
5134;DHT22;2585;48.696;10.066;2023-01-08T07:46:29;-0.50;94.30
5134;DHT22;2585;48.696;10.066;2023-01-08T07:48:56;-0.40;94.40
5134;DHT22;2585;48.696;10.066;2023-01-08T07:51:23;-0.40;94.40
5134;DHT22;2585;48.696;10.066;2023-01-08T07:53:50;-0.30;94.40
5134;DHT22;2585;48.696;10.066;2023-01-08T07:56:17;-0.30;94.40
5134;DHT22;2585;48.696;10.066;2023-01-08T07:58:43;-0.30;94.40
5134;DHT22;2585;48.696;10.066;2023-01-08T08:01:10;-0.20;94.40
5134;DHT22;2585;48.696;10.066;2023-01-08T08:03:38;-0.20;94.40
5134;DHT22;2585;48.696;10.066;2023-01-08T08:06:05;-0.20;94.40
5134;DHT22;2585;48.696;10.066;2023-01-08T08:08:33;-0.20;94.40
5134;DHT22;2585;48.696;10.066;2023-01-08T08:11:00;-0.10;94.50
5134;DHT22;2585;48.696;10.066;2023-01-08T08:13:27;-0.10;94.50
5134;DHT22;2585;48.696;10.066;2023-01-08T08:15:53;0.00;94.50
5134;DHT22;2585;48.696;10.066;2023-01-08T08:18:20;0.00;94.50
5134;DHT22;2585;48.696;10.066;2023-01-08T08:20:47;0.00;94.50
5134;DHT22;2585;48.696;10.066;2023-01-08T08:23:17;0.00;94.50
5134;DHT22;2585;48.696;10.066;2023-01-08T08:25:44;0.00;94.50
5134;DHT22;2585;48.696;10.066;2023-01-08T08:28:11;0.00;94.50
5134;DHT22;2585;48.696;10.066;2023-01-08T08:30:38;0.10;94.50
5134;DHT22;2585;48.696;10.066;2023-01-08T08:33:08;0.10;94.50
5134;DHT22;2585;48.696;10.066;2023-01-08T08:35:36;0.20;94.50
5134;DHT22;2585;48.696;10.066;2023-01-08T08:38:03;0.20;94.50
5134;DHT22;2585;48.696;10.066;2023-01-08T08:40:30;0.30;94.60
5134;DHT22;2585;48.696;10.066;2023-01-08T08:43:02;0.30;94.60
5134;DHT22;2585;48.696;10.066;2023-01-08T08:45:30;0.40;94.60
5134;DHT22;2585;48.696;10.066;2023-01-08T08:47:56;0.40;94.60
5134;DHT22;2585;48.696;10.066;2023-01-08T08:50:23;0.40;94.60
5134;DHT22;2585;48.696;10.066;2023-01-08T08:52:51;0.40;94.60
5134;DHT22;2585;48.696;10.066;2023-01-08T08:55:17;0.40;94.60
5134;DHT22;2585;48.696;10.066;2023-01-08T08:57:45;0.30;94.60
5134;DHT22;2585;48.696;10.066;2023-01-08T09:00:13;0.40;94.60
5134;DHT22;2585;48.696;10.066;2023-01-08T09:02:40;0.50;94.60
5134;DHT22;2585;48.696;10.066;2023-01-08T09:05:07;0.50;94.60
5134;DHT22;2585;48.696;10.066;2023-01-08T09:07:34;0.50;94.60
5134;DHT22;2585;48.696;10.066;2023-01-08T09:10:01;0.60;94.60
5134;DHT22;2585;48.696;10.066;2023-01-08T09:12:27;0.60;94.60
5134;DHT22;2585;48.696;10.066;2023-01-08T09:14:54;0.70;94.70
5134;DHT22;2585;48.696;10.066;2023-01-08T09:17:22;0.70;94.70
5134;DHT22;2585;48.696;10.066;2023-01-08T09:19:51;0.70;94.70
5134;DHT22;2585;48.696;10.066;2023-01-08T09:22:18;0.70;94.70
5134;DHT22;2585;48.696;10.066;2023-01-08T09:24:45;0.70;94.70
5134;DHT22;2585;48.696;10.066;2023-01-08T09:27:12;0.60;94.60
5134;DHT22;2585;48.696;10.066;2023-01-08T09:29:39;0.70;94.70
5134;DHT22;2585;48.696;10.066;2023-01-08T09:32:07;0.70;94.70
5134;DHT22;2585;48.696;10.066;2023-01-08T09:34:34;0.70;94.70
5134;DHT22;2585;48.696;10.066;2023-01-08T09:37:04;0.70;94.70
5134;DHT22;2585;48.696;10.066;2023-01-08T09:39:32;0.70;94.70
5134;DHT22;2585;48.696;10.066;2023-01-08T09:42:04;0.80;94.70
5134;DHT22;2585;48.696;10.066;2023-01-08T09:44:39;0.80;94.70
5134;DHT22;2585;48.696;10.066;2023-01-08T09:47:29;0.80;94.70
5134;DHT22;2585;48.696;10.066;2023-01-08T09:50:00;0.90;94.70
5134;DHT22;2585;48.696;10.066;2023-01-08T09:52:29;0.90;94.70
5134;DHT22;2585;48.696;10.066;2023-01-08T09:54:57;0.90;94.70
5134;DHT22;2585;48.696;10.066;2023-01-08T09:57:24;0.90;94.70
5134;DHT22;2585;48.696;10.066;2023-01-08T09:59:51;0.90;94.70
5134;DHT22;2585;48.696;10.066;2023-01-08T10:02:20;1.00;94.80
5134;DHT22;2585;48.696;10.066;2023-01-08T10:04:58;1.10;94.80
5134;DHT22;2585;48.696;10.066;2023-01-08T10:07:27;1.10;94.80
5134;DHT22;2585;48.696;10.066;2023-01-08T10:09:55;1.10;94.80
5134;DHT22;2585;48.696;10.066;2023-01-08T10:12:28;1.20;94.80
5134;DHT22;2585;48.696;10.066;2023-01-08T10:14:59;1.30;94.80
5134;DHT22;2585;48.696;10.066;2023-01-08T10:17:44;1.30;94.80
5134;DHT22;2585;48.696;10.066;2023-01-08T10:20:16;1.30;94.80
5134;DHT22;2585;48.696;10.066;2023-01-08T10:22:43;1.40;94.90
5134;DHT22;2585;48.696;10.066;2023-01-08T10:25:11;1.50;94.90
5134;DHT22;2585;48.696;10.066;2023-01-08T10:27:47;1.60;94.90
5134;DHT22;2585;48.696;10.066;2023-01-08T10:30:20;1.80;95.00
5134;DHT22;2585;48.696;10.066;2023-01-08T10:32:51;2.20;95.10
5134;DHT22;2585;48.696;10.066;2023-01-08T10:35:27;2.50;95.10
5134;DHT22;2585;48.696;10.066;2023-01-08T10:37:57;2.80;95.20
5134;DHT22;2585;48.696;10.066;2023-01-08T10:40:44;2.90;95.20
5134;DHT22;2585;48.696;10.066;2023-01-08T10:43:41;3.10;95.30
5134;DHT22;2585;48.696;10.066;2023-01-08T10:46:16;3.30;95.30
5134;DHT22;2585;48.696;10.066;2023-01-08T10:48:49;3.60;95.40
5134;DHT22;2585;48.696;10.066;2023-01-08T10:51:21;3.90;95.50
5134;DHT22;2585;48.696;10.066;2023-01-08T10:53:52;4.20;95.60
5134;DHT22;2585;48.696;10.066;2023-01-08T10:56:25;4.70;95.70
5134;DHT22;2585;48.696;10.066;2023-01-08T10:58:52;4.70;95.70
5134;DHT22;2585;48.696;10.066;2023-01-08T11:01:29;4.70;95.70
5134;DHT22;2585;48.696;10.066;2023-01-08T11:04:04;5.00;95.80
5134;DHT22;2585;48.696;10.066;2023-01-08T11:06:36;5.10;95.80
5134;DHT22;2585;48.696;10.066;2023-01-08T11:09:26;5.20;95.80
5134;DHT22;2585;48.696;10.066;2023-01-08T11:11:54;5.40;95.90
5134;DHT22;2585;48.696;10.066;2023-01-08T11:14:30;5.40;95.90
5134;DHT22;2585;48.696;10.066;2023-01-08T11:17:01;5.40;
5134;DHT22;2585;48.696;10.066;2023-01-08T11:19:34;5.40;95.90
5134;DHT22;2585;48.696;10.066;2023-01-08T11:22:03;5.40;95.90
5134;DHT22;2585;48.696;10.066;2023-01-08T11:24:35;5.50;95.90
5134;DHT22;2585;48.696;10.066;2023-01-08T11:32:25;5.60;95.90
5134;DHT22;2585;48.696;10.066;2023-01-08T11:35:12;5.80;96.00
5134;DHT22;2585;48.696;10.066;2023-01-08T11:37:50;5.80;95.90
5134;DHT22;2585;48.696;10.066;2023-01-08T11:40:37;6.00;96.00
5134;DHT22;2585;48.696;10.066;2023-01-08T11:46:12;6.10;96.00
5134;DHT22;2585;48.696;10.066;2023-01-08T12:00:39;6.30;91.30
5134;DHT22;2585;48.696;10.066;2023-01-08T12:03:29;6.30;91.30
5134;DHT22;2585;48.696;10.066;2023-01-08T12:06:19;6.40;91.30
5134;DHT22;2585;48.696;10.066;2023-01-08T12:08:59;6.50;91.30
5134;DHT22;2585;48.696;10.066;2023-01-08T12:11:31;6.60;91.30
5134;DHT22;2585;48.696;10.066;2023-01-08T12:28:26;6.70;91.30
5134;DHT22;2585;48.696;10.066;2023-01-08T12:33:57;6.80;91.20
5134;DHT22;2585;48.696;10.066;2023-01-08T12:36:47;7.00;91.10
5134;DHT22;2585;48.696;10.066;2023-01-08T12:39:21;7.10;91.10
5134;DHT22;2585;48.696;10.066;2023-01-08T12:41:51;7.10;91.10
5134;DHT22;2585;48.696;10.066;2023-01-08T12:44:25;7.00;91.10
5134;DHT22;2585;48.696;10.066;2023-01-08T12:46:56;7.00;91.10
5134;DHT22;2585;48.696;10.066;2023-01-08T12:49:35;7.10;91.10
5134;DHT22;2585;48.696;10.066;2023-01-08T12:52:14;7.10;91.10
5134;DHT22;2585;48.696;10.066;2023-01-08T12:54:54;7.10;91.00
5134;DHT22;2585;48.696;10.066;2023-01-08T12:57:28;7.20;91.00
5134;DHT22;2585;48.696;10.066;2023-01-08T13:07:51;7.20;90.80
5134;DHT22;2585;48.696;10.066;2023-01-08T13:12:58;7.30;90.60
5134;DHT22;2585;48.696;10.066;2023-01-08T13:15:29;7.30;90.60
5134;DHT22;2585;48.696;10.066;2023-01-08T13:20:31;7.30;90.80
5134;DHT22;2585;48.696;10.066;2023-01-08T13:23:01;7.40;90.50
5134;DHT22;2585;48.696;10.066;2023-01-08T13:25:36;7.40;90.10
5134;DHT22;2585;48.696;10.066;2023-01-08T13:28:25;7.40;90.30
5134;DHT22;2585;48.696;10.066;2023-01-08T13:30:53;7.40;90.40
5134;DHT22;2585;48.696;10.066;2023-01-08T13:38:43;7.50;88.90
5134;DHT22;2585;48.696;10.066;2023-01-08T13:41:34;7.50;88.60
5134;DHT22;2585;48.696;10.066;2023-01-08T13:46:59;7.40;89.70
5134;DHT22;2585;48.696;10.066;2023-01-08T13:49:27;7.40;90.20
5134;DHT22;2585;48.696;10.066;2023-01-08T13:51:55;7.30;90.30
5134;DHT22;2585;48.696;10.066;2023-01-08T13:57:02;7.30;90.10
5134;DHT22;2585;48.696;10.066;2023-01-08T13:59:38;7.40;90.00
5134;DHT22;2585;48.696;10.066;2023-01-08T14:02:24;7.40;89.40
5134;DHT22;2585;48.696;10.066;2023-01-08T14:04:53;7.40;88.70
5134;DHT22;2585;48.696;10.066;2023-01-08T14:07:20;7.30;90.20
5134;DHT22;2585;48.696;10.066;2023-01-08T14:09:47;7.20;90.40
5134;DHT22;2585;48.696;10.066;2023-01-08T14:12:16;7.20;90.40
5134;DHT22;2585;48.696;10.066;2023-01-08T14:14:52;7.20;90.50
5134;DHT22;2585;48.696;10.066;2023-01-08T14:17:22;7.10;90.80
5134;DHT22;2585;48.696;10.066;2023-01-08T14:19:51;7.10;90.90
5134;DHT22;2585;48.696;10.066;2023-01-08T14:22:31;7.00;91.00
5134;DHT22;2585;48.696;10.066;2023-01-08T14:25:07;7.00;91.10
5134;DHT22;2585;48.696;10.066;2023-01-08T14:27:39;7.00;91.10
5134;DHT22;2585;48.696;10.066;2023-01-08T14:30:15;7.10;91.10
5134;DHT22;2585;48.696;10.066;2023-01-08T14:32:43;7.00;91.10
5134;DHT22;2585;48.696;10.066;2023-01-08T14:35:15;7.00;91.10
5134;DHT22;2585;48.696;10.066;2023-01-08T14:37:43;7.10;91.10
5134;DHT22;2585;48.696;10.066;2023-01-08T14:40:15;7.10;91.10
5134;DHT22;2585;48.696;10.066;2023-01-08T14:42:43;7.10;91.00
5134;DHT22;2585;48.696;10.066;2023-01-08T14:45:25;7.10;91.00
5134;DHT22;2585;48.696;10.066;2023-01-08T14:47:55;7.10;91.00
5134;DHT22;2585;48.696;10.066;2023-01-08T14:50:31;7.00;91.10
5134;DHT22;2585;48.696;10.066;2023-01-08T14:55:39;6.90;91.10
5134;DHT22;2585;48.696;10.066;2023-01-08T14:58:17;6.80;91.10
5134;DHT22;2585;48.696;10.066;2023-01-08T15:00:51;6.80;91.10
5134;DHT22;2585;48.696;10.066;2023-01-08T15:03:38;6.70;91.10
5134;DHT22;2585;48.696;10.066;2023-01-08T15:06:06;6.60;91.20
5134;DHT22;2585;48.696;10.066;2023-01-08T15:08:38;6.60;91.20
5134;DHT22;2585;48.696;10.066;2023-01-08T15:11:13;6.50;91.20
5134;DHT22;2585;48.696;10.066;2023-01-08T15:13:46;6.40;91.20
5134;DHT22;2585;48.696;10.066;2023-01-08T15:21:32;6.40;91.20
5134;DHT22;2585;48.696;10.066;2023-01-08T15:24:01;6.30;91.20
5134;DHT22;2585;48.696;10.066;2023-01-08T15:26:29;6.30;91.20
5134;DHT22;2585;48.696;10.066;2023-01-08T15:28:58;6.30;91.20
5134;DHT22;2585;48.696;10.066;2023-01-08T15:34:08;6.30;91.20
5134;DHT22;2585;48.696;10.066;2023-01-08T15:36:35;6.20;91.20
5134;DHT22;2585;48.696;10.066;2023-01-08T15:39:02;6.30;91.20
5134;DHT22;2585;48.696;10.066;2023-01-08T15:41:37;6.20;91.20
5134;DHT22;2585;48.696;10.066;2023-01-08T15:44:23;6.10;95.90
5134;DHT22;2585;48.696;10.066;2023-01-08T15:46:51;6.10;95.90
5134;DHT22;2585;48.696;10.066;2023-01-08T15:49:18;6.10;95.90
5134;DHT22;2585;48.696;10.066;2023-01-08T15:51:49;6.10;95.90
5134;DHT22;2585;48.696;10.066;2023-01-08T15:54:19;6.10;95.90
5134;DHT22;2585;48.696;10.066;2023-01-08T15:56:46;6.10;95.90
5134;DHT22;2585;48.696;10.066;2023-01-08T15:59:13;6.00;95.90
5134;DHT22;2585;48.696;10.066;2023-01-08T16:01:40;6.00;95.90
5134;DHT22;2585;48.696;10.066;2023-01-08T16:04:07;6.00;95.90
5134;DHT22;2585;48.696;10.066;2023-01-08T16:06:33;5.90;95.90
5134;DHT22;2585;48.696;10.066;2023-01-08T16:09:02;5.90;95.90
5134;DHT22;2585;48.696;10.066;2023-01-08T16:11:29;5.90;95.90
5134;DHT22;2585;48.696;10.066;2023-01-08T16:13:55;5.90;95.90
5134;DHT22;2585;48.696;10.066;2023-01-08T16:16:22;5.90;95.90
5134;DHT22;2585;48.696;10.066;2023-01-08T16:18:49;5.90;95.90
5134;DHT22;2585;48.696;10.066;2023-01-08T16:21:18;5.80;95.80
5134;DHT22;2585;48.696;10.066;2023-01-08T16:23:44;5.80;95.80
5134;DHT22;2585;48.696;10.066;2023-01-08T16:26:13;5.80;95.80
5134;DHT22;2585;48.696;10.066;2023-01-08T16:28:41;5.80;95.90
5134;DHT22;2585;48.696;10.066;2023-01-08T16:31:08;5.70;95.80
5134;DHT22;2585;48.696;10.066;2023-01-08T16:33:35;5.70;95.80
5134;DHT22;2585;48.696;10.066;2023-01-08T16:36:06;5.60;95.80
5134;DHT22;2585;48.696;10.066;2023-01-08T16:38:34;5.60;95.80
5134;DHT22;2585;48.696;10.066;2023-01-08T16:41:02;5.50;95.80
5134;DHT22;2585;48.696;10.066;2023-01-08T16:43:38;5.50;95.80
5134;DHT22;2585;48.696;10.066;2023-01-08T16:46:10;5.40;95.80
5134;DHT22;2585;48.696;10.066;2023-01-08T16:48:37;5.40;95.80
5134;DHT22;2585;48.696;10.066;2023-01-08T16:51:04;5.40;95.80
5134;DHT22;2585;48.696;10.066;2023-01-08T16:53:32;5.30;95.70
5134;DHT22;2585;48.696;10.066;2023-01-08T16:55:59;5.20;95.70
5134;DHT22;2585;48.696;10.066;2023-01-08T16:58:26;5.20;95.70
5134;DHT22;2585;48.696;10.066;2023-01-08T17:00:55;5.10;95.70
5134;DHT22;2585;48.696;10.066;2023-01-08T17:03:23;5.10;95.70
5134;DHT22;2585;48.696;10.066;2023-01-08T17:05:50;5.10;95.70
5134;DHT22;2585;48.696;10.066;2023-01-08T17:08:16;5.00;95.70
5134;DHT22;2585;48.696;10.066;2023-01-08T17:10:45;5.00;95.70
5134;DHT22;2585;48.696;10.066;2023-01-08T17:13:12;4.90;95.70
5134;DHT22;2585;48.696;10.066;2023-01-08T17:15:39;4.90;95.70
5134;DHT22;2585;48.696;10.066;2023-01-08T17:18:06;4.80;95.60
5134;DHT22;2585;48.696;10.066;2023-01-08T17:20:33;4.70;95.60
5134;DHT22;2585;48.696;10.066;2023-01-08T17:22:59;4.70;95.60
5134;DHT22;2585;48.696;10.066;2023-01-08T17:25:27;4.60;95.60
5134;DHT22;2585;48.696;10.066;2023-01-08T17:27:53;4.50;95.60
5134;DHT22;2585;48.696;10.066;2023-01-08T17:30:20;4.50;95.60
5134;DHT22;2585;48.696;10.066;2023-01-08T17:32:47;4.40;95.50
5134;DHT22;2585;48.696;10.066;2023-01-08T17:35:14;4.30;95.50
5134;DHT22;2585;48.696;10.066;2023-01-08T17:37:41;4.30;95.50
5134;DHT22;2585;48.696;10.066;2023-01-08T17:40:08;4.30;95.50
5134;DHT22;2585;48.696;10.066;2023-01-08T17:42:35;4.30;95.50
5134;DHT22;2585;48.696;10.066;2023-01-08T17:45:01;4.30;95.50